createdAt,value
2019-02-25T00:04:37.992Z,1031.93
2019-02-25T00:09:33.847Z,1032.00
2019-02-25T00:14:30.257Z,1031.83
2019-02-25T00:19:26.191Z,1031.79
2019-02-25T00:24:21.757Z,1031.82
2019-02-25T00:29:17.580Z,1031.81
2019-02-25T00:34:13.441Z,1031.87
2019-02-25T00:39:09.006Z,1031.88
2019-02-25T00:44:05.806Z,1031.81
2019-02-25T00:49:01.943Z,1031.77
2019-02-25T00:53:57.517Z,1031.78
2019-02-25T00:58:54.279Z,1031.80
2019-02-25T01:03:49.663Z,1031.81
2019-02-25T01:08:46.199Z,1031.73
2019-02-25T01:13:41.566Z,1031.76
2019-02-25T01:18:37.466Z,1031.82
2019-02-25T01:23:33.975Z,1031.72
2019-02-25T01:28:29.396Z,1031.62
2019-02-25T01:33:26.637Z,1031.69
2019-02-25T01:38:22.727Z,1031.63
2019-02-25T01:43:18.341Z,1031.57
2019-02-25T01:48:14.455Z,1031.51
2019-02-25T01:53:11.162Z,1031.55
2019-02-25T01:58:07.458Z,1031.65
2019-02-25T02:03:02.837Z,1031.78
2019-02-25T02:07:59.232Z,1031.68
2019-02-25T02:12:54.940Z,1031.52
2019-02-25T02:17:50.590Z,1031.58
2019-02-25T02:22:46.118Z,1031.48
2019-02-25T02:27:41.732Z,1031.43
2019-02-25T02:32:37.033Z,1031.50
2019-02-25T02:37:33.127Z,1031.42
2019-02-25T02:42:29.725Z,1031.48
2019-02-25T02:47:25.083Z,1031.61
2019-02-25T02:52:21.116Z,1031.52
2019-02-25T02:57:16.952Z,1031.46
2019-02-25T03:02:12.690Z,1031.39
2019-02-25T03:07:07.722Z,1031.43
2019-02-25T03:12:03.562Z,1031.39
2019-02-25T03:16:59.263Z,1031.47
2019-02-25T03:21:54.668Z,1031.38
2019-02-25T03:26:50.221Z,1031.47
2019-02-25T03:31:45.748Z,1031.48
2019-02-25T03:36:43.075Z,1031.37
2019-02-25T03:41:38.542Z,1031.38
2019-02-25T03:46:34.954Z,1031.38
2019-02-25T03:51:30.439Z,1031.27
2019-02-25T03:56:27.281Z,1031.49
2019-02-25T04:01:22.563Z,1031.57
2019-02-25T04:06:18.353Z,1031.45
2019-02-25T04:11:14.127Z,1031.46
2019-02-25T04:16:09.950Z,1031.44
2019-02-25T04:21:05.711Z,1031.45
2019-02-25T04:26:02.222Z,1031.45
2019-02-25T04:30:57.592Z,1031.49
2019-02-25T04:35:53.134Z,1031.48
2019-02-25T04:40:48.841Z,1031.48
2019-02-25T04:45:45.477Z,1031.61
2019-02-25T04:50:41.854Z,1031.61
2019-02-25T04:55:37.282Z,1031.67
2019-02-25T05:00:34.320Z,1031.60
2019-02-25T05:05:30.683Z,1031.69
2019-02-25T05:10:25.763Z,1031.64
2019-02-25T05:15:21.328Z,1031.68
2019-02-25T05:20:17.908Z,1031.64
2019-02-25T05:25:13.648Z,1031.68
2019-02-25T05:30:09.261Z,1031.84
2019-02-25T05:35:05.770Z,1031.79
2019-02-25T05:40:01.171Z,1031.80
2019-02-25T05:44:58.132Z,1031.81
2019-02-25T05:49:54.047Z,1031.85
2019-02-25T05:54:49.622Z,1031.77
2019-02-25T05:59:45.078Z,1031.86
2019-02-25T06:04:40.644Z,1031.72
2019-02-25T06:09:36.522Z,1031.71
2019-02-25T06:14:32.124Z,1031.68
2019-02-25T06:19:28.761Z,1031.65
2019-02-25T06:24:25.036Z,1031.61
2019-02-25T06:29:20.545Z,1031.67
2019-02-25T06:34:16.677Z,1031.76
2019-02-25T06:39:12.348Z,1031.80
2019-02-25T06:44:08.118Z,1031.80
2019-02-25T06:49:04.543Z,1031.95
2019-02-25T06:54:00.524Z,1031.91
2019-02-25T06:58:57.159Z,1031.88
2019-02-25T07:03:53.577Z,1031.84
2019-02-25T07:08:49.177Z,1031.86
2019-02-25T07:13:45.022Z,1031.92
2019-02-25T07:18:41.052Z,1031.93
2019-02-25T07:23:37.695Z,1031.93
2019-02-25T07:28:33.531Z,1031.94
2019-02-25T07:33:29.516Z,1032.02
2019-02-25T07:38:25.312Z,1032.02
2019-02-25T07:43:21.316Z,1032.20
2019-02-25T07:48:17.685Z,1032.21
2019-02-25T07:53:14.370Z,1032.23
2019-02-25T07:58:10.006Z,1032.27
2019-02-25T08:03:05.879Z,1032.28
2019-02-25T08:08:02.005Z,1032.45
2019-02-25T08:12:58.850Z,1032.35
2019-02-25T08:17:54.582Z,1032.42
2019-02-25T08:22:50.588Z,1032.43
2019-02-25T08:27:46.565Z,1032.59
2019-02-25T08:32:42.402Z,1032.58
2019-02-25T08:37:38.323Z,1032.71
2019-02-25T08:42:35.101Z,1032.71
2019-02-25T08:47:31.733Z,1032.76
2019-02-25T08:52:27.126Z,1032.85
2019-02-25T08:57:23.064Z,1032.83
2019-02-25T09:02:19.930Z,1032.83
2019-02-25T09:07:15.785Z,1032.83
2019-02-25T09:12:11.855Z,1032.82
2019-02-25T09:17:07.805Z,1032.81
2019-02-25T09:22:04.550Z,1032.79
2019-02-25T09:27:00.094Z,1032.78
2019-02-25T09:31:55.862Z,1032.97
2019-02-25T09:36:51.811Z,1032.81
2019-02-25T09:41:47.887Z,1032.98
2019-02-25T09:46:43.957Z,1032.98
2019-02-25T09:51:39.773Z,1033.01
2019-02-25T09:56:37.351Z,1032.94
2019-02-25T10:01:34.507Z,1032.91
2019-02-25T10:06:29.967Z,1032.88
2019-02-25T10:11:25.946Z,1032.80
2019-02-25T10:16:21.741Z,1032.78
2019-02-25T10:21:17.623Z,1032.66
2019-02-25T10:26:13.878Z,1032.61
2019-02-25T10:31:11.507Z,1032.72
2019-02-25T10:36:07.824Z,1032.60
2019-02-25T10:41:04.078Z,1032.65
2019-02-25T10:45:59.955Z,1032.66
2019-02-25T10:50:56.470Z,1032.57
2019-02-25T10:55:53.018Z,1032.49
2019-02-25T11:00:50.337Z,1032.37
2019-02-25T11:05:46.517Z,1032.36
2019-02-25T11:10:43.973Z,1032.46
2019-02-25T11:15:40.238Z,1032.29
2019-02-25T11:20:37.859Z,1032.27
2019-02-25T11:25:33.738Z,1032.20
2019-02-25T11:30:31.573Z,1032.12
2019-02-25T11:35:28.583Z,1032.05
2019-02-25T11:40:26.055Z,1032.00
2019-02-25T11:45:24.629Z,1031.82
2019-02-25T11:50:21.575Z,1031.73
2019-02-25T11:55:17.184Z,1031.64
2019-02-25T12:00:12.983Z,1031.61
2019-02-25T12:05:08.561Z,1031.49
2019-02-25T12:10:05.344Z,1031.42
2019-02-25T12:15:00.737Z,1031.33
2019-02-25T12:19:56.673Z,1031.18
2019-02-25T12:24:52.313Z,1031.00
2019-02-25T12:29:49.047Z,1031.00
2019-02-25T12:34:45.243Z,1030.90
2019-02-25T12:39:41.092Z,1030.96
2019-02-25T12:44:38.165Z,1030.86
2019-02-25T12:49:34.095Z,1030.88
2019-02-25T12:54:30.013Z,1030.89
2019-02-25T12:59:25.951Z,1030.73
2019-02-25T13:04:21.808Z,1030.73
2019-02-25T13:09:18.570Z,1030.73
2019-02-25T13:14:14.410Z,1030.77
2019-02-25T13:19:11.102Z,1030.68
2019-02-25T13:24:07.200Z,1030.64
2019-02-25T13:29:05.161Z,1030.70
2019-02-25T13:34:00.584Z,1030.73
2019-02-25T13:38:56.251Z,1030.64
2019-02-25T13:43:52.154Z,1030.64
2019-02-25T13:48:49.743Z,1030.60
2019-02-25T13:53:45.586Z,1030.67
2019-02-25T13:58:42.813Z,1030.66
2019-02-25T14:03:39.068Z,1030.63
2019-02-25T14:08:35.277Z,1030.63
2019-02-25T14:13:31.630Z,1030.55
2019-02-25T14:18:27.524Z,1030.56
2019-02-25T14:23:23.531Z,1030.51
2019-02-25T14:28:19.919Z,1030.64
2019-02-25T14:33:16.402Z,1030.58
2019-02-25T14:38:15.243Z,1030.45
2019-02-25T14:43:14.766Z,1030.44
2019-02-25T14:48:13.072Z,1030.53
2019-02-25T14:53:11.354Z,1030.54
2019-02-25T14:58:10.571Z,1030.52
2019-02-25T15:03:06.835Z,1030.49
2019-02-25T15:08:03.026Z,1030.53
2019-02-25T15:13:01.276Z,1030.48
2019-02-25T15:17:56.875Z,1030.43
2019-02-25T15:22:52.739Z,1030.55
2019-02-25T15:27:49.634Z,1030.52
2019-02-25T15:32:54.865Z,1030.58
2019-02-25T15:37:44.818Z,1030.53
2019-02-25T15:42:41.605Z,1030.45
2019-02-25T15:47:38.473Z,1030.53
2019-02-25T15:52:39.933Z,1030.49
2019-02-25T15:57:35.209Z,1030.43
2019-02-25T16:02:31.403Z,1030.42
2019-02-25T16:07:28.188Z,1030.47
2019-02-25T16:12:27.087Z,1030.45
2019-02-25T16:17:24.144Z,1030.45
2019-02-25T16:22:19.461Z,1030.37
2019-02-25T16:27:18.875Z,1030.49
2019-02-25T16:32:15.277Z,1030.48
2019-02-25T16:37:12.330Z,1030.49
2019-02-25T16:42:09.124Z,1030.39
2019-02-25T16:47:04.430Z,1030.39
2019-02-25T16:52:01.896Z,1030.38
2019-02-25T16:56:57.228Z,1030.39
2019-02-25T17:01:55.832Z,1030.54
2019-02-25T17:06:53.486Z,1030.49
2019-02-25T17:11:50.020Z,1030.57
2019-02-25T17:16:45.785Z,1030.53
2019-02-25T17:21:42.938Z,1030.43
2019-02-25T17:26:38.577Z,1030.43
2019-02-25T17:31:36.555Z,1030.40
2019-02-25T17:36:33.126Z,1030.35
2019-02-25T17:41:28.794Z,1030.40
2019-02-25T17:46:26.350Z,1030.42
2019-02-25T17:51:24.990Z,1030.47
2019-02-25T17:56:22.625Z,1030.49
2019-02-25T18:01:21.524Z,1030.50
2019-02-25T18:06:20.138Z,1030.69
2019-02-25T18:11:18.547Z,1030.59
2019-02-25T18:16:16.787Z,1030.54
2019-02-25T18:21:13.509Z,1030.53
2019-02-25T18:26:09.120Z,1030.42
2019-02-25T18:31:08.483Z,1030.46
2019-02-25T18:36:04.473Z,1030.39
2019-02-25T18:41:04.206Z,1030.40
2019-02-25T18:46:00.557Z,1030.40
2019-02-25T18:50:59.620Z,1030.33
2019-02-25T18:55:56.772Z,1030.35
2019-02-25T19:00:52.139Z,1030.30
2019-02-25T19:05:49.436Z,1030.32
2019-02-25T19:10:47.617Z,1030.41
2019-02-25T19:15:43.474Z,1030.41
2019-02-25T19:20:41.072Z,1030.32
2019-02-25T19:25:37.896Z,1030.33
2019-02-25T19:30:34.700Z,1030.34
2019-02-25T19:35:31.055Z,1030.36
2019-02-25T19:40:28.935Z,1030.37
2019-02-25T19:45:25.086Z,1030.41
2019-02-25T19:50:21.558Z,1030.26
2019-02-25T19:55:18.382Z,1030.22
2019-02-25T20:00:17.807Z,1030.24
2019-02-25T20:05:16.529Z,1030.26
2019-02-25T20:10:13.640Z,1030.38
2019-02-25T20:15:11.342Z,1030.25
2019-02-25T20:20:10.206Z,1030.30
2019-02-25T20:25:05.941Z,1030.14
2019-02-25T20:30:04.523Z,1030.02
2019-02-25T20:35:01.195Z,1030.00
2019-02-25T20:39:56.784Z,1029.98
2019-02-25T20:44:53.454Z,1029.99
2019-02-25T20:49:53.690Z,1029.82
2019-02-25T20:54:49.614Z,1029.79
2019-02-25T20:59:47.192Z,1029.74
2019-02-25T21:04:46.023Z,1029.71
2019-02-25T21:09:42.348Z,1029.79
2019-02-25T21:14:41.124Z,1029.80
2019-02-25T21:19:37.878Z,1029.75
2019-02-25T21:24:35.824Z,1029.95
2019-02-25T21:29:34.822Z,1029.96
2019-02-25T21:34:31.273Z,1029.94
2019-02-25T21:39:28.069Z,1029.92
2019-02-25T21:44:25.844Z,1029.95
2019-02-25T21:49:25.089Z,1029.91
2019-02-25T21:54:22.193Z,1030.03
2019-02-25T21:59:17.718Z,1030.00
2019-02-25T22:04:15.569Z,1030.03
2019-02-25T22:09:12.412Z,1030.01
2019-02-25T22:14:08.828Z,1029.99
2019-02-25T22:19:05.173Z,1029.94
2019-02-25T22:24:03.137Z,1029.93
2019-02-25T22:29:01.725Z,1030.02
2019-02-25T22:33:56.473Z,1030.06
2019-02-25T22:38:56.551Z,1029.88
2019-02-25T22:43:52.901Z,1029.94
2019-02-25T22:48:49.414Z,1029.94
2019-02-25T22:53:45.632Z,1029.88
2019-02-25T22:58:42.920Z,1029.83
2019-02-25T23:03:40.917Z,1029.89
2019-02-25T23:08:40.132Z,1029.85
2019-02-25T23:13:35.934Z,1029.74
2019-02-25T23:18:31.679Z,1029.63
2019-02-25T23:23:28.675Z,1029.69
2019-02-25T23:28:26.158Z,1029.76
2019-02-25T23:33:24.437Z,1029.80
2019-02-25T23:38:19.662Z,1029.66
2019-02-25T23:43:16.755Z,1029.59
2019-02-25T23:48:13.258Z,1029.64
2019-02-25T23:53:08.928Z,1029.80
2019-02-25T23:58:07.901Z,1029.70
